sensor_id;sensor_type;location;lat;lon;timestamp;P1;durP1;ratioP1;P2;durP2;ratioP2
63342;SDS011;49465;57.664;39.686;2023-02-01T00:01:07;17.48;;;12.45;;
63342;SDS011;49465;57.664;39.686;2023-02-01T00:03:33;16.38;;;12.10;;
63342;SDS011;49465;57.664;39.686;2023-02-01T00:06:00;17.27;;;12.20;;
63342;SDS011;49465;57.664;39.686;2023-02-01T00:08:26;18.48;;;12.52;;
63342;SDS011;49465;57.664;39.686;2023-02-01T00:10:59;16.42;;;12.43;;
63342;SDS011;49465;57.664;39.686;2023-02-01T00:13:31;18.13;;;12.38;;
63342;SDS011;49465;57.664;39.686;2023-02-01T00:16:09;18.65;;;12.57;;
63342;SDS011;49465;57.664;39.686;2023-02-01T00:18:41;18.30;;;12.90;;
63342;SDS011;49465;57.664;39.686;2023-02-01T00:21:10;19.40;;;12.85;;
63342;SDS011;49465;57.664;39.686;2023-02-01T00:23:37;18.58;;;12.65;;
63342;SDS011;49465;57.664;39.686;2023-02-01T00:26:07;18.63;;;11.93;;
63342;SDS011;49465;57.664;39.686;2023-02-01T00:28:45;16.65;;;11.68;;
63342;SDS011;49465;57.664;39.686;2023-02-01T00:31:11;18.95;;;12.38;;
63342;SDS011;49465;57.664;39.686;2023-02-01T00:33:42;17.05;;;11.77;;
63342;SDS011;49465;57.664;39.686;2023-02-01T00:36:11;17.55;;;11.55;;
63342;SDS011;49465;57.664;39.686;2023-02-01T00:38:38;15.75;;;11.27;;
63342;SDS011;49465;57.664;39.686;2023-02-01T00:41:07;15.98;;;11.35;;
63342;SDS011;49465;57.664;39.686;2023-02-01T00:43:47;14.57;;;10.07;;
63342;SDS011;49465;57.664;39.686;2023-02-01T00:46:14;11.00;;;8.00;;
63342;SDS011;49465;57.664;39.686;2023-02-01T00:48:47;10.00;;;6.63;;
63342;SDS011;49465;57.664;39.686;2023-02-01T00:51:15;9.25;;;6.07;;
63342;SDS011;49465;57.664;39.686;2023-02-01T00:53:46;6.72;;;4.93;;
63342;SDS011;49465;57.664;39.686;2023-02-01T00:56:13;6.75;;;4.40;;
63342;SDS011;49465;57.664;39.686;2023-02-01T00:58:39;6.05;;;4.03;;
63342;SDS011;49465;57.664;39.686;2023-02-01T01:01:10;5.22;;;3.88;;
63342;SDS011;49465;57.664;39.686;2023-02-01T01:03:44;5.18;;;3.75;;
63342;SDS011;49465;57.664;39.686;2023-02-01T01:06:16;5.72;;;4.20;;
63342;SDS011;49465;57.664;39.686;2023-02-01T01:08:46;6.47;;;4.70;;
63342;SDS011;49465;57.664;39.686;2023-02-01T01:11:19;6.75;;;5.03;;
63342;SDS011;49465;57.664;39.686;2023-02-01T01:13:48;6.38;;;4.55;;
63342;SDS011;49465;57.664;39.686;2023-02-01T01:16:18;7.82;;;5.18;;
63342;SDS011;49465;57.664;39.686;2023-02-01T01:18:48;6.70;;;4.82;;
63342;SDS011;49465;57.664;39.686;2023-02-01T01:21:15;7.10;;;4.75;;
63342;SDS011;49465;57.664;39.686;2023-02-01T01:23:45;7.20;;;5.18;;
63342;SDS011;49465;57.664;39.686;2023-02-01T01:26:22;6.80;;;5.40;;
63342;SDS011;49465;57.664;39.686;2023-02-01T01:28:50;8.65;;;6.47;;
63342;SDS011;49465;57.664;39.686;2023-02-01T01:31:22;9.50;;;6.40;;
63342;SDS011;49465;57.664;39.686;2023-02-01T01:33:50;9.07;;;6.82;;
63342;SDS011;49465;57.664;39.686;2023-02-01T01:36:24;10.02;;;6.88;;
63342;SDS011;49465;57.664;39.686;2023-02-01T01:38:53;9.70;;;7.10;;
63342;SDS011;49465;57.664;39.686;2023-02-01T01:41:21;10.27;;;6.97;;
63342;SDS011;49465;57.664;39.686;2023-02-01T01:43:57;10.00;;;6.88;;
63342;SDS011;49465;57.664;39.686;2023-02-01T01:46:26;9.75;;;6.85;;
63342;SDS011;49465;57.664;39.686;2023-02-01T01:49:13;9.50;;;6.93;;
63342;SDS011;49465;57.664;39.686;2023-02-01T01:51:52;10.77;;;6.70;;
63342;SDS011;49465;57.664;39.686;2023-02-01T01:54:44;9.73;;;6.80;;
63342;SDS011;49465;57.664;39.686;2023-02-01T01:57:17;9.65;;;6.82;;
63342;SDS011;49465;57.664;39.686;2023-02-01T01:59:54;11.20;;;6.82;;
63342;SDS011;49465;57.664;39.686;2023-02-01T02:02:36;10.70;;;6.82;;
63342;SDS011;49465;57.664;39.686;2023-02-01T02:05:04;10.13;;;6.90;;
63342;SDS011;49465;57.664;39.686;2023-02-01T02:07:37;10.50;;;7.53;;
63342;SDS011;49465;57.664;39.686;2023-02-01T02:10:08;8.10;;;5.85;;
63342;SDS011;49465;57.664;39.686;2023-02-01T02:12:38;8.15;;;5.97;;
63342;SDS011;49465;57.664;39.686;2023-02-01T02:15:09;9.13;;;6.43;;
63342;SDS011;49465;57.664;39.686;2023-02-01T02:23:27;7.68;;;5.45;;
63342;SDS011;49465;57.664;39.686;2023-02-01T02:26:20;7.80;;;5.45;;
63342;SDS011;49465;57.664;39.686;2023-02-01T02:29:11;24.45;;;16.30;;
63342;SDS011;49465;57.664;39.686;2023-02-01T02:45:47;5.93;;;4.35;;
63342;SDS011;49465;57.664;39.686;2023-02-01T02:48:50;5.88;;;4.55;;
63342;SDS011;49465;57.664;39.686;2023-02-01T02:51:28;5.25;;;4.25;;
63342;SDS011;49465;57.664;39.686;2023-02-01T02:54:28;5.75;;;4.40;;
63342;SDS011;49465;57.664;39.686;2023-02-01T03:00:05;6.03;;;4.22;;
63342;SDS011;49465;57.664;39.686;2023-02-01T03:02:58;7.18;;;4.07;;
63342;SDS011;49465;57.664;39.686;2023-02-01T03:05:46;5.15;;;3.55;;
63342;SDS011;49465;57.664;39.686;2023-02-01T03:10:59;4.10;;;3.42;;
63342;SDS011;49465;57.664;39.686;2023-02-01T03:19:00;3.90;;;3.10;;
63342;SDS011;49465;57.664;39.686;2023-02-01T03:21:40;4.75;;;2.90;;
63342;SDS011;49465;57.664;39.686;2023-02-01T03:24:27;4.40;;;3.00;;
63342;SDS011;49465;57.664;39.686;2023-02-01T03:27:13;3.95;;;2.88;;
63342;SDS011;49465;57.664;39.686;2023-02-01T03:29:48;3.75;;;3.08;;
63342;SDS011;49465;57.664;39.686;2023-02-01T03:32:16;3.58;;;2.80;;
63342;SDS011;49465;57.664;39.686;2023-02-01T03:34:43;4.55;;;3.40;;
63342;SDS011;49465;57.664;39.686;2023-02-01T03:37:13;4.95;;;3.70;;
63342;SDS011;49465;57.664;39.686;2023-02-01T03:42:31;4.75;;;3.60;;
63342;SDS011;49465;57.664;39.686;2023-02-01T03:45:22;5.38;;;4.00;;
63342;SDS011;49465;57.664;39.686;2023-02-01T03:48:01;6.82;;;4.00;;
63342;SDS011;49465;57.664;39.686;2023-02-01T03:50:31;5.35;;;4.05;;
63342;SDS011;49465;57.664;39.686;2023-02-01T03:53:07;5.90;;;4.38;;
63342;SDS011;49465;57.664;39.686;2023-02-01T03:55:37;5.60;;;4.22;;
63342;SDS011;49465;57.664;39.686;2023-02-01T03:58:08;5.63;;;4.05;;
63342;SDS011;49465;57.664;39.686;2023-02-01T04:00:54;6.68;;;4.75;;
63342;SDS011;49465;57.664;39.686;2023-02-01T04:03:26;5.43;;;4.32;;
63342;SDS011;49465;57.664;39.686;2023-02-01T04:05:53;7.28;;;4.78;;
63342;SDS011;49465;57.664;39.686;2023-02-01T04:08:22;6.57;;;4.70;;
63342;SDS011;49465;57.664;39.686;2023-02-01T04:10:52;6.43;;;4.78;;
63342;SDS011;49465;57.664;39.686;2023-02-01T04:13:18;6.57;;;4.90;;
63342;SDS011;49465;57.664;39.686;2023-02-01T04:15:46;8.02;;;5.25;;
63342;SDS011;49465;57.664;39.686;2023-02-01T04:18:15;8.00;;;5.78;;
63342;SDS011;49465;57.664;39.686;2023-02-01T04:20:44;10.02;;;7.05;;
63342;SDS011;49465;57.664;39.686;2023-02-01T04:23:10;8.32;;;5.60;;
63342;SDS011;49465;57.664;39.686;2023-02-01T04:25:40;8.18;;;5.68;;
63342;SDS011;49465;57.664;39.686;2023-02-01T04:28:07;8.35;;;5.30;;
63342;SDS011;49465;57.664;39.686;2023-02-01T04:30:34;9.10;;;5.85;;
63342;SDS011;49465;57.664;39.686;2023-02-01T04:33:03;7.68;;;5.53;;
63342;SDS011;49465;57.664;39.686;2023-02-01T04:35:39;9.10;;;6.03;;
63342;SDS011;49465;57.664;39.686;2023-02-01T04:38:10;9.48;;;6.22;;
63342;SDS011;49465;57.664;39.686;2023-02-01T04:40:40;9.48;;;6.60;;
63342;SDS011;49465;57.664;39.686;2023-02-01T04:43:11;10.45;;;6.95;;
63342;SDS011;49465;57.664;39.686;2023-02-01T04:45:39;8.70;;;6.30;;
63342;SDS011;49465;57.664;39.686;2023-02-01T04:50:40;9.05;;;6.10;;
63342;SDS011;49465;57.664;39.686;2023-02-01T04:53:10;8.82;;;6.15;;
63342;SDS011;49465;57.664;39.686;2023-02-01T04:55:36;10.43;;;6.30;;
63342;SDS011;49465;57.664;39.686;2023-02-01T04:58:02;8.20;;;5.63;;
63342;SDS011;49465;57.664;39.686;2023-02-01T05:00:29;7.97;;;5.63;;
63342;SDS011;49465;57.664;39.686;2023-02-01T05:02:55;8.18;;;5.35;;
63342;SDS011;49465;57.664;39.686;2023-02-01T05:05:24;7.43;;;5.00;;
63342;SDS011;49465;57.664;39.686;2023-02-01T05:07:54;8.35;;;5.10;;
63342;SDS011;49465;57.664;39.686;2023-02-01T05:10:23;8.20;;;5.65;;
63342;SDS011;49465;57.664;39.686;2023-02-01T05:12:50;7.90;;;5.10;;
63342;SDS011;49465;57.664;39.686;2023-02-01T05:15:34;7.60;;;5.00;;
63342;SDS011;49465;57.664;39.686;2023-02-01T05:18:01;6.82;;;4.68;;
63342;SDS011;49465;57.664;39.686;2023-02-01T05:20:30;6.57;;;4.40;;
63342;SDS011;49465;57.664;39.686;2023-02-01T05:22:56;5.65;;;4.13;;
63342;SDS011;49465;57.664;39.686;2023-02-01T05:25:26;6.85;;;4.30;;
63342;SDS011;49465;57.664;39.686;2023-02-01T05:27:58;6.03;;;4.07;;
63342;SDS011;49465;57.664;39.686;2023-02-01T05:30:24;5.82;;;3.92;;
63342;SDS011;49465;57.664;39.686;2023-02-01T05:32:53;5.68;;;3.88;;
63342;SDS011;49465;57.664;39.686;2023-02-01T05:35:20;5.80;;;4.00;;
63342;SDS011;49465;57.664;39.686;2023-02-01T05:37:46;6.05;;;3.70;;
63342;SDS011;49465;57.664;39.686;2023-02-01T05:40:18;7.10;;;4.25;;
63342;SDS011;49465;57.664;39.686;2023-02-01T05:42:45;6.03;;;4.10;;
63342;SDS011;49465;57.664;39.686;2023-02-01T05:45:16;6.05;;;3.83;;
63342;SDS011;49465;57.664;39.686;2023-02-01T05:47:48;6.05;;;3.78;;
63342;SDS011;49465;57.664;39.686;2023-02-01T05:50:16;5.93;;;4.15;;
63342;SDS011;49465;57.664;39.686;2023-02-01T05:52:42;6.18;;;4.45;;
63342;SDS011;49465;57.664;39.686;2023-02-01T05:55:11;6.53;;;4.82;;
63342;SDS011;49465;57.664;39.686;2023-02-01T05:57:40;6.80;;;4.88;;
63342;SDS011;49465;57.664;39.686;2023-02-01T06:00:09;6.50;;;4.43;;
63342;SDS011;49465;57.664;39.686;2023-02-01T06:02:42;7.20;;;4.25;;
63342;SDS011;49465;57.664;39.686;2023-02-01T06:05:08;6.05;;;3.90;;
63342;SDS011;49465;57.664;39.686;2023-02-01T06:07:40;5.75;;;4.00;;
63342;SDS011;49465;57.664;39.686;2023-02-01T06:10:09;5.22;;;3.55;;
63342;SDS011;49465;57.664;39.686;2023-02-01T06:12:36;5.85;;;4.20;;
63342;SDS011;49465;57.664;39.686;2023-02-01T06:15:10;6.25;;;4.47;;
63342;SDS011;49465;57.664;39.686;2023-02-01T06:17:43;7.10;;;5.30;;
63342;SDS011;49465;57.664;39.686;2023-02-01T06:20:16;7.70;;;5.18;;
63342;SDS011;49465;57.664;39.686;2023-02-01T06:22:46;10.35;;;5.63;;
63342;SDS011;49465;57.664;39.686;2023-02-01T06:25:12;9.43;;;5.82;;
63342;SDS011;49465;57.664;39.686;2023-02-01T06:27:39;9.98;;;6.25;;
63342;SDS011;49465;57.664;39.686;2023-02-01T06:30:08;9.95;;;6.70;;
63342;SDS011;49465;57.664;39.686;2023-02-01T06:32:38;16.17;;;10.05;;
63342;SDS011;49465;57.664;39.686;2023-02-01T06:35:15;11.52;;;7.78;;
63342;SDS011;49465;57.664;39.686;2023-02-01T06:37:50;11.05;;;7.30;;
63342;SDS011;49465;57.664;39.686;2023-02-01T06:40:20;11.77;;;8.10;;
63342;SDS011;49465;57.664;39.686;2023-02-01T06:42:47;13.30;;;8.70;;
63342;SDS011;49465;57.664;39.686;2023-02-01T06:45:14;13.48;;;8.73;;
63342;SDS011;49465;57.664;39.686;2023-02-01T06:47:53;14.82;;;9.40;;
63342;SDS011;49465;57.664;39.686;2023-02-01T06:50:19;14.48;;;9.73;;
63342;SDS011;49465;57.664;39.686;2023-02-01T06:52:48;13.80;;;9.23;;
63342;SDS011;49465;57.664;39.686;2023-02-01T06:55:18;15.40;;;9.68;;
63342;SDS011;49465;57.664;39.686;2023-02-01T06:57:44;13.77;;;9.73;;
63342;SDS011;49465;57.664;39.686;2023-02-01T07:00:13;14.20;;;9.32;;
63342;SDS011;49465;57.664;39.686;2023-02-01T07:02:40;14.07;;;9.32;;
63342;SDS011;49465;57.664;39.686;2023-02-01T07:05:12;15.45;;;10.10;;
63342;SDS011;49465;57.664;39.686;2023-02-01T07:07:44;14.88;;;9.73;;
63342;SDS011;49465;57.664;39.686;2023-02-01T07:10:18;16.17;;;10.02;;
63342;SDS011;49465;57.664;39.686;2023-02-01T07:13:09;15.35;;;10.02;;
63342;SDS011;49465;57.664;39.686;2023-02-01T07:15:40;15.20;;;10.27;;
63342;SDS011;49465;57.664;39.686;2023-02-01T07:18:15;17.30;;;10.70;;
63342;SDS011;49465;57.664;39.686;2023-02-01T07:20:49;16.38;;;10.63;;
63342;SDS011;49465;57.664;39.686;2023-02-01T07:23:16;15.68;;;10.23;;
63342;SDS011;49465;57.664;39.686;2023-02-01T07:25:44;16.13;;;10.30;;
63342;SDS011;49465;57.664;39.686;2023-02-01T07:28:15;17.35;;;10.93;;
63342;SDS011;49465;57.664;39.686;2023-02-01T07:30:45;16.02;;;10.70;;
63342;SDS011;49465;57.664;39.686;2023-02-01T07:33:25;16.88;;;10.90;;
63342;SDS011;49465;57.664;39.686;2023-02-01T07:35:53;16.85;;;10.93;;
63342;SDS011;49465;57.664;39.686;2023-02-01T07:38:19;16.73;;;10.70;;
63342;SDS011;49465;57.664;39.686;2023-02-01T07:40:47;15.57;;;10.30;;
63342;SDS011;49465;57.664;39.686;2023-02-01T07:43:18;18.48;;;11.60;;
63342;SDS011;49465;57.664;39.686;2023-02-01T07:45:51;16.67;;;10.98;;
63342;SDS011;49465;57.664;39.686;2023-02-01T07:48:19;17.13;;;10.93;;
63342;SDS011;49465;57.664;39.686;2023-02-01T07:50:52;16.73;;;10.82;;
63342;SDS011;49465;57.664;39.686;2023-02-01T07:53:30;18.08;;;10.82;;
63342;SDS011;49465;57.664;39.686;2023-02-01T07:56:12;16.83;;;10.90;;
63342;SDS011;49465;57.664;39.686;2023-02-01T07:58:41;16.80;;;10.52;;
63342;SDS011;49465;57.664;39.686;2023-02-01T08:01:17;17.75;;;11.63;;
63342;SDS011;49465;57.664;39.686;2023-02-01T08:03:56;17.02;;;11.13;;
63342;SDS011;49465;57.664;39.686;2023-02-01T08:06:26;16.23;;;10.80;;
63342;SDS011;49465;57.664;39.686;2023-02-01T08:09:01;17.08;;;11.55;;
63342;SDS011;49465;57.664;39.686;2023-02-01T08:11:33;18.20;;;12.18;;
63342;SDS011;49465;57.664;39.686;2023-02-01T08:14:02;21.67;;;13.30;;
63342;SDS011;49465;57.664;39.686;2023-02-01T08:16:38;21.60;;;13.13;;
63342;SDS011;49465;57.664;39.686;2023-02-01T08:19:04;18.80;;;12.10;;
63342;SDS011;49465;57.664;39.686;2023-02-01T08:21:36;20.77;;;13.15;;
63342;SDS011;49465;57.664;39.686;2023-02-01T08:24:06;22.63;;;13.55;;
63342;SDS011;49465;57.664;39.686;2023-02-01T08:26:37;23.52;;;14.13;;
63342;SDS011;49465;57.664;39.686;2023-02-01T08:29:06;24.20;;;15.27;;
63342;SDS011;49465;57.664;39.686;2023-02-01T08:31:33;24.65;;;16.73;;
63342;SDS011;49465;57.664;39.686;2023-02-01T08:34:00;25.20;;;16.50;;
63342;SDS011;49465;57.664;39.686;2023-02-01T08:36:33;24.23;;;15.63;;
63342;SDS011;49465;57.664;39.686;2023-02-01T08:39:00;24.80;;;15.45;;
63342;SDS011;49465;57.664;39.686;2023-02-01T08:41:30;23.35;;;14.48;;
63342;SDS011;49465;57.664;39.686;2023-02-01T08:44:01;25.75;;;14.90;;
63342;SDS011;49465;57.664;39.686;2023-02-01T08:46:28;24.88;;;15.27;;
63342;SDS011;49465;57.664;39.686;2023-02-01T08:48:55;25.65;;;14.77;;
63342;SDS011;49465;57.664;39.686;2023-02-01T08:51:24;23.88;;;14.77;;
63342;SDS011;49465;57.664;39.686;2023-02-01T08:53:50;23.15;;;14.57;;
63342;SDS011;49465;57.664;39.686;2023-02-01T08:56:19;21.83;;;13.88;;
63342;SDS011;49465;57.664;39.686;2023-02-01T08:58:48;22.73;;;14.50;;
63342;SDS011;49465;57.664;39.686;2023-02-01T09:01:17;23.55;;;14.55;;
63342;SDS011;49465;57.664;39.686;2023-02-01T09:03:43;23.60;;;14.73;;
63342;SDS011;49465;57.664;39.686;2023-02-01T09:06:11;23.73;;;14.30;;
63342;SDS011;49465;57.664;39.686;2023-02-01T09:08:41;22.00;;;13.63;;
63342;SDS011;49465;57.664;39.686;2023-02-01T09:11:10;21.08;;;13.60;;
63342;SDS011;49465;57.664;39.686;2023-02-01T09:13:39;23.10;;;13.82;;
63342;SDS011;49465;57.664;39.686;2023-02-01T09:16:06;20.95;;;13.13;;
63342;SDS011;49465;57.664;39.686;2023-02-01T09:18:33;21.17;;;13.05;;
63342;SDS011;49465;57.664;39.686;2023-02-01T09:21:08;21.38;;;12.80;;
63342;SDS011;49465;57.664;39.686;2023-02-01T09:23:37;19.63;;;12.68;;
63342;SDS011;49465;57.664;39.686;2023-02-01T09:26:04;20.48;;;12.77;;
63342;SDS011;49465;57.664;39.686;2023-02-01T09:28:33;21.98;;;13.25;;
63342;SDS011;49465;57.664;39.686;2023-02-01T09:31:01;21.67;;;13.45;;
63342;SDS011;49465;57.664;39.686;2023-02-01T09:33:28;20.02;;;12.93;;
63342;SDS011;49465;57.664;39.686;2023-02-01T09:35:58;18.70;;;12.68;;
63342;SDS011;49465;57.664;39.686;2023-02-01T09:38:27;20.52;;;12.93;;
63342;SDS011;49465;57.664;39.686;2023-02-01T09:40:57;21.05;;;12.55;;
63342;SDS011;49465;57.664;39.686;2023-02-01T09:46:28;21.17;;;12.98;;
63342;SDS011;49465;57.664;39.686;2023-02-01T09:49:01;19.83;;;12.43;;
63342;SDS011;49465;57.664;39.686;2023-02-01T09:51:41;19.80;;;12.30;;
63342;SDS011;49465;57.664;39.686;2023-02-01T09:54:15;19.58;;;13.05;;
63342;SDS011;49465;57.664;39.686;2023-02-01T09:56:52;20.80;;;13.20;;
63342;SDS011;49465;57.664;39.686;2023-02-01T10:02:13;20.55;;;12.75;;
63342;SDS011;49465;57.664;39.686;2023-02-01T10:04:56;21.40;;;13.95;;
63342;SDS011;49465;57.664;39.686;2023-02-01T10:10:18;22.05;;;13.57;;
63342;SDS011;49465;57.664;39.686;2023-02-01T10:13:09;21.98;;;13.98;;
63342;SDS011;49465;57.664;39.686;2023-02-01T10:19:21;23.67;;;14.23;;
63342;SDS011;49465;57.664;39.686;2023-02-01T10:21:55;23.38;;;14.70;;
63342;SDS011;49465;57.664;39.686;2023-02-01T10:29:53;23.13;;;15.02;;
63342;SDS011;49465;57.664;39.686;2023-02-01T10:32:26;26.08;;;15.80;;
63342;SDS011;49465;57.664;39.686;2023-02-01T10:35:08;25.42;;;15.55;;
63342;SDS011;49465;57.664;39.686;2023-02-01T10:37:43;25.35;;;14.95;;
63342;SDS011;49465;57.664;39.686;2023-02-01T10:40:17;25.17;;;16.02;;
63342;SDS011;49465;57.664;39.686;2023-02-01T10:42:47;25.33;;;15.02;;
63342;SDS011;49465;57.664;39.686;2023-02-01T10:45:27;26.27;;;15.52;;
63342;SDS011;49465;57.664;39.686;2023-02-01T10:47:57;24.52;;;14.77;;
63342;SDS011;49465;57.664;39.686;2023-02-01T10:53:05;24.40;;;15.90;;
63342;SDS011;49465;57.664;39.686;2023-02-01T10:55:53;24.73;;;15.65;;
63342;SDS011;49465;57.664;39.686;2023-02-01T10:58:31;28.88;;;16.63;;
63342;SDS011;49465;57.664;39.686;2023-02-01T11:00:59;24.42;;;15.80;;
63342;SDS011;49465;57.664;39.686;2023-02-01T11:06:37;27.88;;;17.13;;
63342;SDS011;49465;57.664;39.686;2023-02-01T11:11:32;29.23;;;17.08;;
63342;SDS011;49465;57.664;39.686;2023-02-01T11:14:19;28.02;;;17.00;;
63342;SDS011;49465;57.664;39.686;2023-02-01T11:16:53;28.48;;;17.38;;
63342;SDS011;49465;57.664;39.686;2023-02-01T11:19:22;27.55;;;17.85;;
63342;SDS011;49465;57.664;39.686;2023-02-01T11:21:56;28.95;;;17.40;;
63342;SDS011;49465;57.664;39.686;2023-02-01T11:24:38;28.23;;;16.73;;
63342;SDS011;49465;57.664;39.686;2023-02-01T11:27:17;25.35;;;16.27;;
63342;SDS011;49465;57.664;39.686;2023-02-01T11:29:47;28.95;;;18.10;;
63342;SDS011;49465;57.664;39.686;2023-02-01T11:32:18;28.77;;;17.83;;
63342;SDS011;49465;57.664;39.686;2023-02-01T11:35:00;30.33;;;18.30;;
63342;SDS011;49465;57.664;39.686;2023-02-01T11:37:35;33.13;;;19.67;;
63342;SDS011;49465;57.664;39.686;2023-02-01T11:42:55;29.17;;;18.20;;
63342;SDS011;49465;57.664;39.686;2023-02-01T11:45:38;29.75;;;18.85;;
63342;SDS011;49465;57.664;39.686;2023-02-01T11:48:10;30.88;;;18.55;;
63342;SDS011;49465;57.664;39.686;2023-02-01T11:51:04;32.17;;;19.30;;
63342;SDS011;49465;57.664;39.686;2023-02-01T11:53:36;29.60;;;18.20;;
63342;SDS011;49465;57.664;39.686;2023-02-01T11:56:30;28.92;;;18.55;;
63342;SDS011;49465;57.664;39.686;2023-02-01T11:59:23;30.83;;;19.30;;
63342;SDS011;49465;57.664;39.686;2023-02-01T12:21:49;28.73;;;18.27;;
63342;SDS011;49465;57.664;39.686;2023-02-01T12:24:50;29.73;;;18.38;;
63342;SDS011;49465;57.664;39.686;2023-02-01T12:33:25;29.73;;;17.67;;
63342;SDS011;49465;57.664;39.686;2023-02-01T12:41:31;33.78;;;19.70;;
63342;SDS011;49465;57.664;39.686;2023-02-01T12:47:06;31.08;;;19.08;;
63342;SDS011;49465;57.664;39.686;2023-02-01T12:52:51;32.85;;;19.63;;
63342;SDS011;49465;57.664;39.686;2023-02-01T12:57:58;27.30;;;17.95;;
63342;SDS011;49465;57.664;39.686;2023-02-01T13:01:06;32.08;;;19.45;;
63342;SDS011;49465;57.664;39.686;2023-02-01T13:03:50;32.35;;;18.70;;
63342;SDS011;49465;57.664;39.686;2023-02-01T13:06:26;30.17;;;18.52;;
63342;SDS011;49465;57.664;39.686;2023-02-01T13:11:58;32.92;;;19.05;;
63342;SDS011;49465;57.664;39.686;2023-02-01T13:14:40;31.00;;;18.52;;
63342;SDS011;49465;57.664;39.686;2023-02-01T13:17:32;37.60;;;21.13;;
63342;SDS011;49465;57.664;39.686;2023-02-01T13:23:08;29.75;;;18.55;;
63342;SDS011;49465;57.664;39.686;2023-02-01T13:26:00;31.35;;;18.77;;
63342;SDS011;49465;57.664;39.686;2023-02-01T13:42:47;38.83;;;23.15;;
63342;SDS011;49465;57.664;39.686;2023-02-01T13:45:23;40.75;;;23.85;;
63342;SDS011;49465;57.664;39.686;2023-02-01T13:47:58;38.90;;;22.30;;
63342;SDS011;49465;57.664;39.686;2023-02-01T13:50:36;43.45;;;24.95;;
63342;SDS011;49465;57.664;39.686;2023-02-01T13:55:45;36.75;;;21.98;;
63342;SDS011;49465;57.664;39.686;2023-02-01T13:58:30;41.08;;;23.23;;
63342;SDS011;49465;57.664;39.686;2023-02-01T14:11:42;37.83;;;22.20;;
63342;SDS011;49465;57.664;39.686;2023-02-01T14:19:41;32.72;;;20.23;;
63342;SDS011;49465;57.664;39.686;2023-02-01T14:22:34;36.45;;;20.75;;
63342;SDS011;49465;57.664;39.686;2023-02-01T14:25:14;35.85;;;20.30;;
63342;SDS011;49465;57.664;39.686;2023-02-01T14:27:48;33.60;;;19.42;;
63342;SDS011;49465;57.664;39.686;2023-02-01T14:30:23;37.63;;;21.17;;
63342;SDS011;49465;57.664;39.686;2023-02-01T14:32:50;35.85;;;20.33;;
63342;SDS011;49465;57.664;39.686;2023-02-01T14:35:24;34.33;;;19.45;;
63342;SDS011;49465;57.664;39.686;2023-02-01T14:37:59;36.63;;;20.17;;
63342;SDS011;49465;57.664;39.686;2023-02-01T14:40:36;37.72;;;20.38;;
63342;SDS011;49465;57.664;39.686;2023-02-01T14:43:07;34.05;;;19.50;;
63342;SDS011;49465;57.664;39.686;2023-02-01T14:45:51;35.33;;;18.83;;
63342;SDS011;49465;57.664;39.686;2023-02-01T14:50:55;34.92;;;18.75;;
63342;SDS011;49465;57.664;39.686;2023-02-01T14:53:32;33.72;;;19.15;;
63342;SDS011;49465;57.664;39.686;2023-02-01T14:56:11;34.47;;;19.50;;
63342;SDS011;49465;57.664;39.686;2023-02-01T14:59:01;34.67;;;19.55;;
63342;SDS011;49465;57.664;39.686;2023-02-01T15:01:35;34.13;;;19.67;;
63342;SDS011;49465;57.664;39.686;2023-02-01T15:06:41;30.05;;;18.35;;
63342;SDS011;49465;57.664;39.686;2023-02-01T15:09:19;32.25;;;17.98;;
63342;SDS011;49465;57.664;39.686;2023-02-01T15:14:40;33.28;;;18.77;;
63342;SDS011;49465;57.664;39.686;2023-02-01T15:17:21;29.85;;;17.83;;
63342;SDS011;49465;57.664;39.686;2023-02-01T15:19:57;30.23;;;17.75;;
63342;SDS011;49465;57.664;39.686;2023-02-01T15:22:33;31.48;;;18.17;;
63342;SDS011;49465;57.664;39.686;2023-02-01T15:25:00;31.95;;;18.92;;
63342;SDS011;49465;57.664;39.686;2023-02-01T15:27:27;32.75;;;17.52;;
63342;SDS011;49465;57.664;39.686;2023-02-01T15:30:04;27.90;;;16.65;;
63342;SDS011;49465;57.664;39.686;2023-02-01T15:32:39;29.05;;;17.05;;
63342;SDS011;49465;57.664;39.686;2023-02-01T15:35:31;26.95;;;16.88;;
63342;SDS011;49465;57.664;39.686;2023-02-01T15:46:14;26.58;;;16.10;;
63342;SDS011;49465;57.664;39.686;2023-02-01T15:48:49;29.13;;;16.67;;
63342;SDS011;49465;57.664;39.686;2023-02-01T15:51:20;27.45;;;16.45;;
63342;SDS011;49465;57.664;39.686;2023-02-01T15:54:27;28.30;;;15.75;;
63342;SDS011;49465;57.664;39.686;2023-02-01T15:57:12;24.85;;;15.32;;
63342;SDS011;49465;57.664;39.686;2023-02-01T15:59:47;29.25;;;16.27;;
63342;SDS011;49465;57.664;39.686;2023-02-01T16:02:32;24.52;;;15.10;;
63342;SDS011;49465;57.664;39.686;2023-02-01T16:08:00;23.33;;;13.98;;
63342;SDS011;49465;57.664;39.686;2023-02-01T16:10:31;20.40;;;13.23;;
63342;SDS011;49465;57.664;39.686;2023-02-01T16:13:03;20.50;;;12.73;;
63342;SDS011;49465;57.664;39.686;2023-02-01T16:15:30;22.25;;;13.10;;
63342;SDS011;49465;57.664;39.686;2023-02-01T16:17:56;21.98;;;13.75;;
63342;SDS011;49465;57.664;39.686;2023-02-01T16:20:23;21.98;;;13.65;;
63342;SDS011;49465;57.664;39.686;2023-02-01T16:22:55;20.70;;;13.55;;
63342;SDS011;49465;57.664;39.686;2023-02-01T16:25:21;20.45;;;12.68;;
63342;SDS011;49465;57.664;39.686;2023-02-01T16:27:52;20.70;;;13.52;;
63342;SDS011;49465;57.664;39.686;2023-02-01T16:30:21;22.65;;;13.18;;
63342;SDS011;49465;57.664;39.686;2023-02-01T16:32:52;21.33;;;12.63;;
63342;SDS011;49465;57.664;39.686;2023-02-01T16:35:25;20.77;;;12.95;;
63342;SDS011;49465;57.664;39.686;2023-02-01T16:37:54;19.83;;;13.38;;
63342;SDS011;49465;57.664;39.686;2023-02-01T16:40:24;24.33;;;14.82;;
63342;SDS011;49465;57.664;39.686;2023-02-01T16:42:56;21.42;;;13.32;;
63342;SDS011;49465;57.664;39.686;2023-02-01T16:45:23;21.55;;;13.27;;
63342;SDS011;49465;57.664;39.686;2023-02-01T16:47:50;23.08;;;13.85;;
63342;SDS011;49465;57.664;39.686;2023-02-01T16:50:22;23.52;;;13.75;;
63342;SDS011;49465;57.664;39.686;2023-02-01T16:52:51;21.15;;;13.10;;
63342;SDS011;49465;57.664;39.686;2023-02-01T16:55:19;23.35;;;13.88;;
63342;SDS011;49465;57.664;39.686;2023-02-01T16:57:50;23.02;;;13.55;;
63342;SDS011;49465;57.664;39.686;2023-02-01T17:00:22;21.90;;;13.75;;
63342;SDS011;49465;57.664;39.686;2023-02-01T17:02:51;23.27;;;13.95;;
63342;SDS011;49465;57.664;39.686;2023-02-01T17:05:21;23.27;;;14.27;;
63342;SDS011;49465;57.664;39.686;2023-02-01T17:07:48;24.90;;;14.68;;
63342;SDS011;49465;57.664;39.686;2023-02-01T17:10:31;24.85;;;14.98;;
63342;SDS011;49465;57.664;39.686;2023-02-01T17:12:58;23.40;;;14.75;;
63342;SDS011;49465;57.664;39.686;2023-02-01T17:15:38;23.83;;;14.90;;
63342;SDS011;49465;57.664;39.686;2023-02-01T17:18:32;25.58;;;14.85;;
63342;SDS011;49465;57.664;39.686;2023-02-01T17:21:12;26.17;;;15.40;;
63342;SDS011;49465;57.664;39.686;2023-02-01T17:23:42;27.30;;;16.25;;
63342;SDS011;49465;57.664;39.686;2023-02-01T17:26:11;25.17;;;15.60;;
63342;SDS011;49465;57.664;39.686;2023-02-01T17:28:38;26.17;;;15.52;;
63342;SDS011;49465;57.664;39.686;2023-02-01T17:31:04;27.73;;;15.82;;
63342;SDS011;49465;57.664;39.686;2023-02-01T17:33:37;26.85;;;15.63;;
63342;SDS011;49465;57.664;39.686;2023-02-01T17:56:04;29.88;;;18.30;;